createdAt,value
2023-12-15T00:01:41.872Z,102108.47
2023-12-15T00:06:44.576Z,102120.53
2023-12-15T00:11:47.195Z,102121.03
2023-12-15T00:16:49.802Z,102125.19
2023-12-15T00:21:52.449Z,102133.50
2023-12-15T00:26:55.655Z,102133.31
2023-12-15T00:31:58.577Z,102138.53
2023-12-15T00:37:01.196Z,102144.63
2023-12-15T00:42:05.793Z,102144.78
2023-12-15T00:47:08.445Z,102155.97
2023-12-15T00:52:11.038Z,102171.69
2023-12-15T00:57:13.708Z,102170.81
2023-12-15T01:02:16.641Z,102175.31
2023-12-15T01:07:19.274Z,102167.00
2023-12-15T01:12:21.878Z,102167.13
2023-12-15T01:17:24.657Z,102169.66
2023-12-15T01:22:27.317Z,102178.25
2023-12-15T01:27:29.890Z,102191.44
2023-12-15T01:32:32.602Z,102195.25
2023-12-15T01:37:35.600Z,102206.97
2023-12-15T01:42:38.331Z,102201.91
2023-12-15T01:47:41.874Z,102208.88
2023-12-15T01:52:45.222Z,102214.97
2023-12-15T01:57:47.840Z,102228.31
2023-12-15T02:02:50.448Z,102238.19
2023-12-15T02:07:53.138Z,102233.69
2023-12-15T02:12:55.861Z,102242.66
2023-12-15T02:17:58.653Z,102248.25
2023-12-15T02:23:01.435Z,102251.81
2023-12-15T02:28:05.019Z,102246.00
2023-12-15T02:33:07.750Z,102244.13
2023-12-15T02:38:10.595Z,102264.56
2023-12-15T02:43:13.390Z,102273.28
2023-12-15T02:48:18.225Z,102273.53
2023-12-15T02:53:20.985Z,102288.19
2023-12-15T02:58:23.876Z,102293.84
2023-12-15T03:03:26.546Z,102296.72
2023-12-15T03:08:29.436Z,102282.97
2023-12-15T03:13:32.231Z,102294.84
2023-12-15T03:18:34.843Z,102304.03
2023-12-15T03:23:37.711Z,102306.03
2023-12-15T03:28:41.200Z,102299.81
2023-12-15T03:33:43.918Z,102311.75
2023-12-15T03:38:46.586Z,102319.13
2023-12-15T03:43:49.158Z,102304.34
2023-12-15T03:48:51.857Z,102313.84
2023-12-15T03:53:54.523Z,102318.28
2023-12-15T03:58:57.164Z,102313.53
2023-12-15T04:03:59.790Z,102329.13
2023-12-15T04:09:02.378Z,102317.03
2023-12-15T04:14:05.943Z,102322.38
2023-12-15T04:19:09.225Z,102335.88
2023-12-15T04:24:11.928Z,102339.88
2023-12-15T04:29:14.519Z,102345.34
2023-12-15T04:34:17.240Z,102340.53
2023-12-15T04:39:19.999Z,102353.56
2023-12-15T04:44:22.692Z,102352.16
2023-12-15T04:49:25.415Z,102347.13
2023-12-15T04:54:28.005Z,102346.75
2023-12-15T04:59:30.623Z,102345.00
2023-12-15T05:04:33.266Z,102349.19
2023-12-15T05:09:35.859Z,102353.63
2023-12-15T05:14:39.663Z,102360.56
2023-12-15T05:19:42.386Z,102359.16
2023-12-15T05:24:44.972Z,102381.28
2023-12-15T05:29:48.001Z,102391.66
2023-12-15T05:34:50.757Z,102392.41
2023-12-15T05:39:53.322Z,102407.31
2023-12-15T05:44:56.023Z,102404.44
2023-12-15T05:49:58.677Z,102413.69
2023-12-15T05:55:01.357Z,102414.53
2023-12-15T06:00:04.616Z,102418.78
2023-12-15T06:05:08.058Z,102413.25
2023-12-15T06:10:11.810Z,102415.03
2023-12-15T06:15:14.611Z,102426.84
2023-12-15T06:20:19.018Z,102438.94
2023-12-15T06:25:21.671Z,102448.69
2023-12-15T06:30:24.373Z,102438.53
2023-12-15T06:35:27.161Z,102454.44
2023-12-15T06:40:29.954Z,102470.38
2023-12-15T06:45:32.557Z,102476.03
2023-12-15T06:50:35.195Z,102483.09
2023-12-15T06:55:37.833Z,102495.59
2023-12-15T07:00:40.719Z,102506.03
2023-12-15T07:08:55.982Z,102503.00
2023-12-15T07:13:58.597Z,102509.00
2023-12-15T07:19:01.356Z,102507.91
2023-12-15T07:24:04.308Z,102514.63
2023-12-15T07:31:17.863Z,102526.47
2023-12-15T07:36:20.513Z,102532.13
2023-12-15T07:41:23.214Z,102532.88
2023-12-15T07:45:45.917Z,102532.47
2023-12-15T07:46:18.918Z,102531.66
2023-12-15T07:46:49.813Z,102535.06
2023-12-15T07:46:57.724Z,102532.41
2023-12-15T07:47:05.334Z,102534.09
2023-12-15T07:47:12.953Z,102537.56
2023-12-15T07:47:20.466Z,102530.50
2023-12-15T07:47:29.840Z,102535.75
2023-12-15T07:48:03.978Z,102539.09
2023-12-15T07:48:12.174Z,102528.47
2023-12-15T07:48:19.886Z,102534.53
2023-12-15T07:48:28.304Z,102535.38
2023-12-15T07:48:36.065Z,102532.69
2023-12-15T07:48:43.706Z,102535.28
2023-12-15T07:49:04.272Z,102529.88
2023-12-15T07:49:25.393Z,102535.91
2023-12-15T07:49:35.580Z,102527.03
2023-12-15T07:49:43.238Z,102534.88
2023-12-15T07:49:50.798Z,102531.31
2023-12-15T07:49:58.581Z,102534.75
2023-12-15T07:50:06.825Z,102531.22
2023-12-15T07:50:29.787Z,102541.63
2023-12-15T07:50:39.020Z,102530.06
2023-12-15T07:50:46.818Z,102534.41
2023-12-15T07:50:55.838Z,102531.72
2023-12-15T07:51:04.857Z,102529.91
2023-12-15T07:51:22.472Z,102533.25
2023-12-15T07:51:29.966Z,102534.09
2023-12-15T07:51:47.950Z,102540.97
2023-12-15T07:51:56.989Z,102541.81
2023-12-15T07:52:05.328Z,102531.16
2023-12-15T07:52:12.883Z,102532.84
2023-12-15T07:52:32.882Z,102541.50
2023-12-15T07:52:40.366Z,102544.06
2023-12-15T07:53:00.500Z,102536.88
2023-12-15T07:53:08.099Z,102539.50
2023-12-15T07:53:15.684Z,102529.78
2023-12-15T07:53:23.277Z,102542.91
2023-12-15T07:53:43.770Z,102537.53
2023-12-15T07:53:51.272Z,102538.31
2023-12-15T07:54:11.469Z,102534.66
2023-12-15T07:54:21.689Z,102532.84
2023-12-15T07:54:30.468Z,102534.53
2023-12-15T07:54:38.212Z,102532.72
2023-12-15T07:54:45.693Z,102537.06
2023-12-15T07:54:53.234Z,102538.72
2023-12-15T07:55:13.503Z,102539.47
2023-12-15T07:55:33.661Z,102537.56
2023-12-15T07:55:41.178Z,102538.34
2023-12-15T07:55:48.694Z,102536.56
2023-12-15T07:55:56.222Z,102540.00
2023-12-15T07:56:03.949Z,102538.22
2023-12-15T07:56:29.156Z,102539.84
2023-12-15T07:56:36.847Z,102535.31
2023-12-15T07:56:44.509Z,102537.91
2023-12-15T07:56:52.023Z,102533.44
2023-12-15T07:56:59.526Z,102539.50
2023-12-15T07:57:07.037Z,102542.97
2023-12-15T07:57:41.205Z,102538.34
2023-12-15T07:57:48.825Z,102537.38
2023-12-15T07:57:56.321Z,102533.84
2023-12-15T07:58:03.852Z,102538.16
2023-12-15T07:58:11.441Z,102536.31
2023-12-15T07:58:20.646Z,102532.78
2023-12-15T07:58:53.901Z,102537.69
2023-12-15T07:59:01.526Z,102538.56
2023-12-15T07:59:09.316Z,102538.47
2023-12-15T07:59:18.413Z,102542.81
2023-12-15T07:59:26.738Z,102539.19
2023-12-15T07:59:37.187Z,102542.66
2023-12-15T07:59:57.229Z,102534.63
2023-12-15T08:00:07.226Z,102531.06
2023-12-15T08:00:35.026Z,102539.59
2023-12-15T08:00:42.559Z,102537.75
2023-12-15T08:00:53.032Z,102536.00
2023-12-15T08:01:00.612Z,102538.56
2023-12-15T08:01:10.554Z,102536.00
2023-12-15T08:01:19.466Z,102530.84
2023-12-15T08:01:39.482Z,102545.75
2023-12-15T08:01:51.665Z,102540.53
2023-12-15T08:02:01.277Z,102536.19
2023-12-15T08:02:08.871Z,102537.38
2023-12-15T08:02:21.124Z,102535.66
2023-12-15T08:02:28.745Z,102533.50
2023-12-15T08:02:49.054Z,102542.06
2023-12-15T08:02:56.643Z,102538.00
2023-12-15T08:03:05.195Z,102546.16
2023-12-15T08:03:12.877Z,102533.88
2023-12-15T08:03:32.997Z,102538.81
2023-12-15T08:03:40.643Z,102540.28
2023-12-15T08:03:49.025Z,102538.09
2023-12-15T08:04:11.643Z,102539.50
2023-12-15T08:11:04.011Z,102528.41
2023-12-15T08:16:10.749Z,102527.25
2023-12-15T08:21:14.181Z,102517.19
2023-12-15T08:26:22.110Z,102507.72
2023-12-15T08:31:25.212Z,102498.88
2023-12-15T08:36:27.820Z,102520.81
2023-12-15T08:41:30.426Z,102514.94
2023-12-15T08:46:33.012Z,102525.81
2023-12-15T08:51:35.661Z,102539.94
2023-12-15T08:56:38.308Z,102558.78
2023-12-15T09:01:40.994Z,102572.75
2023-12-15T09:06:46.106Z,102589.44
2023-12-15T09:11:50.252Z,102590.66
2023-12-15T09:16:52.962Z,102592.25
2023-12-15T09:21:55.547Z,102596.63
2023-12-15T09:26:58.141Z,102595.78
2023-12-15T09:32:00.846Z,102595.50
2023-12-15T09:37:03.642Z,102592.28
2023-12-15T09:42:06.796Z,102596.44
2023-12-15T09:47:10.613Z,102623.19
2023-12-15T09:52:16.145Z,102617.31
2023-12-15T09:57:19.726Z,102621.81
2023-12-15T10:02:22.798Z,102626.94
2023-12-15T10:07:25.430Z,102621.00
2023-12-15T10:12:31.652Z,102620.28
2023-12-15T10:17:35.106Z,102622.84
2023-12-15T10:22:40.859Z,102612.41
2023-12-15T10:27:43.962Z,102608.28
2023-12-15T10:32:47.298Z,102602.69
2023-12-15T10:37:50.468Z,102613.91
2023-12-15T10:42:54.046Z,102604.13
2023-12-15T10:47:59.990Z,102608.47
2023-12-15T10:53:03.761Z,102605.75
2023-12-15T10:58:09.757Z,102609.38
2023-12-15T11:03:12.503Z,102601.59
2023-12-15T11:08:16.259Z,102602.72
2023-12-15T11:13:49.533Z,102604.69
2023-12-15T11:18:55.557Z,102599.97
2023-12-15T11:24:01.419Z,102588.56
2023-12-15T11:29:13.597Z,102593.09
2023-12-15T11:34:38.492Z,102598.34
2023-12-15T11:39:41.820Z,102600.16
2023-12-15T11:44:45.908Z,102606.84
2023-12-15T11:49:50.045Z,102602.50
2023-12-15T11:54:52.731Z,102603.03
2023-12-15T11:59:55.349Z,102605.59
2023-12-15T12:04:59.373Z,102590.00
2023-12-15T12:10:08.323Z,102578.59
2023-12-15T12:15:11.902Z,102577.84
2023-12-15T12:20:14.900Z,102594.31
2023-12-15T12:25:18.051Z,102621.88
2023-12-15T12:30:20.718Z,102626.56
2023-12-15T12:35:23.430Z,102632.03
2023-12-15T12:40:26.161Z,102648.16
2023-12-15T12:45:29.703Z,102641.63
2023-12-15T12:50:33.297Z,102641.81
2023-12-15T12:55:36.124Z,102642.91
2023-12-15T13:00:38.900Z,102642.88
2023-12-15T13:05:42.097Z,102651.25
2023-12-15T13:10:44.771Z,102662.25
2023-12-15T13:15:47.356Z,102667.34
2023-12-15T13:20:50.156Z,102666.09
2023-12-15T13:25:52.988Z,102659.75
2023-12-15T13:30:57.854Z,102674.41
2023-12-15T13:36:10.416Z,102675.09
2023-12-15T13:41:18.451Z,102669.53
2023-12-15T13:46:22.529Z,102674.78
2023-12-15T13:51:25.584Z,102674.03
2023-12-15T13:56:29.449Z,102672.97
2023-12-15T14:01:32.086Z,102685.25
2023-12-15T14:06:35.289Z,102690.16
2023-12-15T14:11:39.585Z,102685.25
2023-12-15T14:16:47.205Z,102698.13
2023-12-15T14:21:50.472Z,102709.19
2023-12-15T14:26:53.151Z,102711.88
2023-12-15T14:31:55.846Z,102701.75
2023-12-15T14:36:58.406Z,102699.94
2023-12-15T14:42:01.024Z,102699.06
2023-12-15T14:47:04.638Z,102696.31
2023-12-15T14:52:07.423Z,102696.50
2023-12-15T14:57:10.197Z,102704.28
2023-12-15T15:02:12.814Z,102700.84
2023-12-15T15:07:15.466Z,102706.31
2023-12-15T15:12:18.138Z,102721.84
2023-12-15T15:17:21.361Z,102711.91
2023-12-15T15:22:24.472Z,102709.38
2023-12-15T15:27:28.007Z,102727.31
2023-12-15T15:32:30.687Z,102734.56
2023-12-15T15:37:33.306Z,102735.47
2023-12-15T15:42:35.882Z,102729.84
2023-12-15T15:47:39.421Z,102723.50
2023-12-15T15:52:42.380Z,102731.31
2023-12-15T15:57:48.081Z,102738.16
2023-12-15T16:02:52.215Z,102734.38
2023-12-15T16:07:54.884Z,102746.00
2023-12-15T16:12:57.996Z,102752.69
2023-12-15T16:18:00.586Z,102751.97
2023-12-15T16:23:03.838Z,102767.34
2023-12-15T16:28:06.567Z,102777.00
2023-12-15T16:33:09.291Z,102777.88
2023-12-15T16:38:12.107Z,102783.34
2023-12-15T16:43:16.003Z,102786.03
2023-12-15T16:48:20.675Z,102790.59
2023-12-15T16:53:23.460Z,102783.88
2023-12-15T16:58:26.211Z,102792.78
2023-12-15T17:03:28.800Z,102794.00
2023-12-15T17:08:31.352Z,102799.47
2023-12-15T17:13:34.032Z,102798.72
2023-12-15T17:18:37.059Z,102818.50
2023-12-15T17:23:39.771Z,102805.28
2023-12-15T17:28:43.240Z,102803.25
2023-12-15T17:33:45.997Z,102795.84
2023-12-15T17:38:48.696Z,102798.38
2023-12-15T17:43:51.309Z,102799.81
2023-12-15T17:48:54.032Z,102800.56
2023-12-15T17:53:56.723Z,102812.72
2023-12-15T17:58:59.400Z,102838.44
2023-12-15T18:04:02.076Z,102845.53
2023-12-15T18:09:06.025Z,102870.56
2023-12-15T18:14:10.656Z,102864.38
2023-12-15T18:19:13.462Z,102862.22
2023-12-15T18:24:16.037Z,102860.75
2023-12-15T18:29:18.775Z,102859.31
2023-12-15T18:34:22.843Z,102865.66
2023-12-15T18:39:26.835Z,102872.72
2023-12-15T18:44:29.735Z,102880.72
2023-12-15T18:49:32.480Z,102877.97
2023-12-15T18:54:35.138Z,102881.09
2023-12-15T18:59:38.356Z,102890.50
2023-12-15T19:04:43.798Z,102893.59
2023-12-15T19:09:46.529Z,102879.59
2023-12-15T19:14:49.228Z,102873.44
2023-12-15T19:19:52.018Z,102882.16
2023-12-15T19:24:55.754Z,102876.88
2023-12-15T19:29:58.574Z,102886.16
2023-12-15T19:35:01.335Z,102904.84
2023-12-15T19:40:05.280Z,102915.19
2023-12-15T19:45:08.938Z,102921.34
2023-12-15T19:50:11.603Z,102900.31
2023-12-15T19:55:17.191Z,102896.31
2023-12-15T20:00:20.571Z,102909.38
2023-12-15T20:05:24.205Z,102892.09
2023-12-15T20:10:26.973Z,102896.66
2023-12-15T20:15:29.617Z,102894.47
2023-12-15T20:20:32.342Z,102898.09
2023-12-15T20:25:34.971Z,102899.91
2023-12-15T20:30:37.590Z,102901.72
2023-12-15T20:35:41.251Z,102912.97
2023-12-15T20:40:45.887Z,102919.13
2023-12-15T20:45:49.143Z,102933.47
2023-12-15T20:50:53.768Z,102938.00
2023-12-15T20:55:56.698Z,102945.81
2023-12-15T21:00:59.574Z,102934.03
2023-12-15T21:06:02.263Z,102922.56
2023-12-15T21:11:06.072Z,102930.38
2023-12-15T21:16:09.856Z,102917.84
2023-12-15T21:21:12.625Z,102934.00
2023-12-15T21:26:16.874Z,102927.28
2023-12-15T21:31:19.991Z,102929.44
2023-12-15T21:36:23.044Z,102926.19
2023-12-15T21:41:25.641Z,102940.88
2023-12-15T21:46:28.281Z,102939.63
2023-12-15T21:51:31.879Z,102939.81
2023-12-15T21:56:34.493Z,102950.31
2023-12-15T22:01:37.486Z,102960.84
